Flight Track Log - Related Links

Times and Time Zones

All times are in EDT time to prevent confusion due to time zone crossing. See the TAM3199 flight status page for this flight to view local times or setup timezone preferences in your user account.

Time Position Orientation Groundspeed Altitude Reporting Facility
EDT Latitude Longitude Course Direction KTS MPH feet Rate Location/Type
Thu 09:28:18 AM -20.2780 -40.2990 212° Southwest 153 176 1,100  Level FlightAware ADS-B
Thu 09:28:48 AM -20.2990 -40.3050 195° South 188 216 1,700 1,418 Climbing FlightAware ADS-B
Thu 09:29:13 AM -20.3250 -40.3110 192° South 230 265 2,400 3,508 Climbing FlightAware ADS-B
Thu 09:29:53 AM -20.3740 -40.2980 166° South 234 269 5,500 3,686 Climbing FlightAware ADS-B
Thu 09:30:23 AM -20.3900 -40.2750 127° Southeast 246 283 6,700 2,600 Climbing FlightAware ADS-B
Thu 09:30:53 AM -20.4160 -40.2490 137° Southeast 259 298 8,100 2,945 Climbing FlightAware ADS-B
Thu 09:31:18 AM -20.4450 -40.2260 143° Southeast 273 314 9,400 2,862 Climbing FlightAware ADS-B
Thu 09:31:58 AM -20.4870 -40.1970 147° Southeast 285 328 11,200 2,400 Climbing FlightAware ADS-B
Thu 09:32:43 AM -20.5270 -40.1690 147° Southeast 292 336 12,800 2,400 Climbing FlightAware ADS-B
Thu 09:32:53 AM -20.5410 -40.1630 158° South 284 327 13,400 3,000 Climbing FlightAware ADS-B
Thu 09:33:23 AM -20.5770 -40.1730 195° South 255 293 14,800 2,471 Climbing FlightAware ADS-B
Thu 09:34:18 AM -20.6210 -40.2240 227° Southwest 261 300 16,900 2,067 Climbing FlightAware ADS-B
Thu 09:34:53 AM -20.6540 -40.2640 229° Southwest 286 329 17,900 2,188 Climbing FlightAware ADS-B
Thu 09:35:43 AM -20.7050 -40.3260 229° Southwest 297 342 20,000 2,600 Climbing FlightAware ADS-B
Thu 09:36:23 AM -20.7430 -40.3730 229° Southwest 289 333 21,800 2,400 Climbing FlightAware ADS-B
Thu 09:36:58 AM -20.7740 -40.4100 228° Southwest 289 333 23,000 1,482 Climbing FlightAware ADS-B
Thu 09:37:48 AM -20.8320 -40.4820 229° Southwest 328 377 23,900 758 Climbing FlightAware ADS-B
Thu 09:38:33 AM -20.8780 -40.5380 229° Southwest 355 409 24,200 900 Climbing FlightAware ADS-B
Thu 09:39:08 AM -20.9250 -40.5860 224° Southwest 368 423 25,100 1,341 Climbing FlightAware ADS-B
Thu 09:39:58 AM -20.9930 -40.6410 217° Southwest 377 434 26,100 1,200 Climbing FlightAware ADS-B
Thu 09:40:33 AM -21.0450 -40.6830 217° Southwest 385 443 26,800 1,271 Climbing FlightAware ADS-B
Thu 09:41:23 AM -21.1140 -40.7400 218° Southwest 389 448 27,900 1,867 Climbing FlightAware ADS-B
Thu 09:42:03 AM -21.1730 -40.7890 218° Southwest 372 428 29,600 1,575 Climbing FlightAware ADS-B
Thu 09:42:43 AM -21.2310 -40.8360 217° Southwest 371 427 30,000 282 Climbing FlightAware ADS-B
Thu 09:43:28 AM -21.2910 -40.8860 218° Southwest 387 445 30,000  Level FlightAware ADS-B
Thu 09:44:08 AM -21.3530 -40.9370 217° Southwest 400 460 30,000  Level FlightAware ADS-B
Thu 09:44:53 AM -21.4190 -40.9910 217° Southwest 400 460 30,000  Level FlightAware ADS-B
Thu 09:45:33 AM -21.4780 -41.0400 218° Southwest 400 460 30,000  Level FlightAware ADS-B
Thu 09:46:03 AM -21.5290 -41.0820 217° Southwest 399 459 30,000  Level FlightAware ADS-B
Thu 09:47:03 AM -21.6150 -41.1530 218° Southwest 402 463 30,000  Level FlightAware ADS-B
Thu 09:47:43 AM -21.6770 -41.2040 217° Southwest 404 465 30,000  Level FlightAware ADS-B
Thu 09:48:28 AM -21.7350 -41.2580 221° Southwest 398 458 30,000  Level FlightAware ADS-B
Thu 09:49:08 AM -21.7900 -41.3310 231° Southwest 395 455 30,000  Level FlightAware ADS-B
Thu 09:49:53 AM -21.8640 -41.4320 232° Southwest 390 449 30,000  Level FlightAware ADS-B
Thu 09:50:33 AM -21.9090 -41.4950 232° Southwest 389 448 30,000  Level FlightAware ADS-B
Thu 09:51:18 AM -21.9600 -41.5650 232° Southwest 389 448 30,000  Level FlightAware ADS-B
Thu 09:51:58 AM -22.0040 -41.6260 232° Southwest 388 447 30,000  Level FlightAware ADS-B
Thu 09:52:38 AM -22.0480 -41.6870 232° Southwest 389 448 30,000  Level FlightAware ADS-B
Thu 09:53:23 AM -22.0970 -41.7550 232° Southwest 388 447 30,000  Level FlightAware ADS-B
Thu 09:54:03 AM -22.1400 -41.8150 232° Southwest 386 444 30,000  Level FlightAware ADS-B
Thu 09:54:43 AM -22.1850 -41.8770 232° Southwest 386 444 30,000  Level FlightAware ADS-B
Thu 09:55:28 AM -22.2350 -41.9470 232° Southwest 387 445 30,000  Level FlightAware ADS-B
Thu 09:56:08 AM -22.2790 -42.0080 232° Southwest 386 444 30,000  Level FlightAware ADS-B
Thu 09:56:53 AM -22.3270 -42.0750 232° Southwest 387 445 30,000  Level FlightAware ADS-B
Thu 09:57:33 AM -22.3700 -42.1350 232° Southwest 387 445 30,000  Level FlightAware ADS-B
Thu 09:58:13 AM -22.4160 -42.1960 231° Southwest 389 448 30,000  Level FlightAware ADS-B
Thu 09:58:58 AM -22.4690 -42.2630 229° Southwest 362 417 30,000 -2,400 Level FlightAware ADS-B
Thu 09:59:38 AM -22.5130 -42.3180 229° Southwest 368 423 26,600 -6,494 Descending FlightAware ADS-B
Thu 10:00:23 AM -22.5640 -42.3820 229° Southwest 407 468 20,800 -6,141 Descending FlightAware ADS-B
Thu 10:01:03 AM -22.6130 -42.4430 229° Southwest 385 443 17,900 -3,525 Descending FlightAware ADS-B
Thu 10:01:43 AM -22.6580 -42.4990 229° Southwest 344 396 16,100 -2,541 Descending FlightAware ADS-B
Thu 10:02:28 AM -22.6990 -42.5530 231° Southwest 314 361 14,300 -2,727 Descending FlightAware ADS-B
Thu 10:02:38 AM -22.7040 -42.5690 251° West 308 354 13,600 -3,273 Descending FlightAware ADS-B
Thu 10:03:23 AM -22.7070 -42.6380 267° West 298 343 11,300 -2,753 Descending FlightAware ADS-B
Thu 10:04:03 AM -22.7090 -42.6980 268° West 284 327 9,700 -2,314 Descending FlightAware ADS-B
Thu 10:04:33 AM -22.7110 -42.7400 267° West 275 316 8,600 -2,267 Descending FlightAware ADS-B
Thu 10:04:48 AM -22.7120 -42.7590 267° West 276 318 8,000 -2,550 Descending FlightAware ADS-B
Thu 10:05:13 AM -22.7140 -42.7950 267° West 276 318 6,900 -2,400 Descending FlightAware ADS-B
Thu 10:05:28 AM -22.7140 -42.8150 270° West 276 318 6,400 -1,333 Descending FlightAware ADS-B
Thu 10:05:58 AM -22.7160 -42.8540 267° West 252 290 5,900 -1,091 Descending FlightAware ADS-B
Thu 10:06:23 AM -22.7200 -42.8850 262° West 238 274 5,400 -1,650 Descending FlightAware ADS-B
Thu 10:06:38 AM -22.7230 -42.9010 259° West 228 262 4,800 -2,800 Descending FlightAware ADS-B
Thu 10:06:53 AM -22.7260 -42.9190 260° West 224 258 4,000 -3,067 Descending FlightAware ADS-B
Thu 10:07:23 AM -22.7310 -42.9530 261° West 225 259 2,500 -2,509 Descending FlightAware ADS-B
Thu 10:07:48 AM -22.7350 -42.9780 260° West 214 246 1,700 -982 Descending FlightAware ADS-B
Thu 10:08:18 AM -22.7400 -43.0070 259° West 190 219 1,600 -86 Descending FlightAware ADS-B
Thu 10:08:58 AM -22.7470 -43.0440 258° West 188 216 1,600  Level FlightAware ADS-B
Thu 10:09:28 AM -22.7550 -43.0720 253° West 187 215 1,600  Level FlightAware ADS-B
Thu 10:09:53 AM -22.7600 -43.0920 255° West 187 215 1,600  Level FlightAware ADS-B
Thu 10:10:08 AM -22.7640 -43.1080 255° West 179 206 1,600  Level FlightAware ADS-B
Thu 10:10:38 AM -22.7690 -43.1290 256° West 149 171 1,600 -327 Level FlightAware ADS-B
Thu 10:11:03 AM -22.7740 -43.1470 253° West 139 160 1,300 -600 Descending FlightAware ADS-B
Thu 10:11:48 AM -22.7800 -43.1700 254° West 138 159 900 -640 Descending FlightAware ADS-B
Thu 10:12:18 AM -22.7850 -43.1910 256° West 139 160 500 -514 Descending FlightAware ADS-B
Thu 10:12:58 AM -22.7920 -43.2150 252° West 139 160 300 -300 Descending FlightAware ADS-B
Thu 10:15:00 AM -22.8089 -43.2436 237° Southwest  Level Estimated
Thu 10:16:00 AM -22.8089 -43.2436 137° Southeast  Level Estimated
Thu 10:17:00 AM -22.8089 -43.2436 137° Southeast  Level Estimated
Thu 10:18:00 AM -22.8089 -43.2436 137° Southeast  Level Estimated
Thu 10:19:00 AM -22.8089 -43.2436 137° Southeast  Level Estimated
Thu 10:20:00 AM -22.8089 -43.2436 137° Southeast  Level Estimated
Thu 10:21:00 AM -22.8089 -43.2436 137° Southeast  Level Estimated
Thu 10:22:00 AM -22.8089 -43.2436 137° Southeast  Level Estimated
Thu 10:23:00 AM -22.8089 -43.2436 137° Southeast  Level Estimated
Thu 10:24:00 AM -22.8089 -43.2436 137° Southeast  Level Estimated
Thu 10:25:00 AM -22.8089 -43.2436 137° Southeast  Level Estimated
Thu 10:26:00 AM -22.8089 -43.2436 137° Southeast  Level Estimated
Thu 10:27:00 AM -22.8089 -43.2436 137° Southeast  Level Estimated
Thu 10:28:00 AM -22.8089 -43.2436 137° Southeast  Level Estimated
Thu 10:29:00 AM -22.8089 -43.2436 137° Southeast  Level Estimated
Thu 10:30:00 AM -22.8089 -43.2436 137° Southeast  Level Estimated
Thu 10:31:00 AM -22.8089 -43.2436 137° Southeast  Level Estimated
Thu 10:32:00 AM -22.8089 -43.2436 137° Southeast  Level Estimated
Thu 10:33:00 AM -22.8089 -43.2436 137° Southeast  Level Estimated
Thu 10:34:00 AM -22.8089 -43.2436 137° Southeast  Level Estimated
Thu 10:35:00 AM -22.8089 -43.2436 137° Southeast  Level Estimated
Thu 10:36:00 AM -22.8089 -43.2436 137° Southeast  Level Estimated
Thu 10:37:00 AM -22.8089 -43.2436 137° Southeast  Level Estimated
Thu 10:38:00 AM -22.8089 -43.2436 137° Southeast  Level Estimated
Thu 10:39:00 AM -22.8089 -43.2436 137° Southeast  Level Estimated
Thu 10:40:00 AM -22.8089 -43.2436 137° Southeast  Level Estimated

Login

Don't have an account? Register now (free) for customized features, flight alerts, and more!